Time;durP1;ratioP1;P1;durP2;ratioP2;P2;SDS_P1;SDS_P2;PMS_P1;PMS_P2;Temp;Humidity;BMP_temperature;BMP_pressure;BME280_temperature;BME280_humidity;BME280_pressure;Samples;Min_cycle;Max_cycle;Signal;HPM_P1;HPM_P2
2022/08/01 00:01:37;;;;;;;1.73;1.38;;;16.60;99.90;;;;;;5046999;28;20043;-69
2022/08/01 00:04:04;;;;;;;3.35;1.92;;;16.50;99.90;;;;;;5044708;28;20049;-69
2022/08/01 00:06:29;;;;;;;1.38;1.20;;;16.50;99.90;;;;;;5051201;28;20033;-69
2022/08/01 00:08:55;;;;;;;1.63;1.17;;;16.50;99.90;;;;;;5050812;28;20114;-69
2022/08/01 00:11:21;;;;;;;2.05;1.33;;;16.50;99.90;;;;;;5055187;28;20024;-69
2022/08/01 00:13:47;;;;;;;2.55;1.35;;;16.50;99.90;;;;;;5048455;28;20775;-69
2022/08/01 00:16:13;;;;;;;3.65;1.25;;;16.50;99.90;;;;;;5053714;28;20461;-69
2022/08/01 00:18:39;;;;;;;1.42;0.93;;;16.40;99.90;;;;;;5055956;28;20182;-69
2022/08/01 00:21:07;;;;;;;1.20;1.10;;;16.40;99.90;;;;;;5053723;28;20037;-68
2022/08/01 00:23:33;;;;;;;3.13;0.95;;;16.40;99.90;;;;;;5053399;28;20485;-69
2022/08/01 00:25:59;;;;;;;1.25;1.13;;;16.50;99.90;;;;;;5056967;28;20043;-68
2022/08/01 00:28:25;;;;;;;1.30;1.00;;;16.50;99.90;;;;;;5052494;28;20045;-69
2022/08/01 00:30:50;;;;;;;1.63;1.30;;;16.40;99.90;;;;;;5055768;28;20029;-69
2022/08/01 00:33:16;;;;;;;1.50;0.93;;;16.40;99.90;;;;;;5056327;28;20524;-69
2022/08/01 00:35:41;;;;;;;2.25;0.95;;;16.40;99.90;;;;;;5050633;28;20083;-69
2022/08/01 00:38:07;;;;;;;1.80;1.10;;;16.40;99.90;;;;;;5050831;28;21019;-69
2022/08/01 00:40:33;;;;;;;0.90;0.90;;;16.40;99.90;;;;;;5050944;28;20073;-69
2022/08/01 00:42:58;;;;;;;1.13;1.02;;;16.50;99.90;;;;;;5049585;28;20051;-69
2022/08/01 00:45:24;;;;;;;7.40;1.52;;;16.50;99.90;;;;;;5056115;28;20033;-69
2022/08/01 00:47:50;;;;;;;3.00;0.95;;;16.50;99.90;;;;;;5035315;28;21269;-69
2022/08/01 00:50:15;;;;;;;3.22;1.15;;;16.50;99.90;;;;;;5055299;28;20037;-69
2022/08/01 00:52:42;;;;;;;3.20;1.13;;;16.50;99.90;;;;;;5058024;28;20438;-69
2022/08/01 00:55:09;;;;;;;1.85;1.23;;;16.50;99.90;;;;;;5036257;28;20063;-69
2022/08/01 00:57:35;;;;;;;2.40;1.30;;;16.50;99.90;;;;;;5056753;28;20721;-69
2022/08/01 01:00:01;;;;;;;0.98;0.93;;;16.50;99.90;;;;;;5037266;28;20055;-69
2022/08/01 01:02:27;;;;;;;1.67;1.20;;;16.60;99.90;;;;;;5059563;28;20036;-69
2022/08/01 01:04:53;;;;;;;2.72;1.13;;;16.70;99.90;;;;;;5053472;28;20036;-69
2022/08/01 01:07:31;;;;;;;1.42;1.10;;;16.70;99.90;;;;;;5055450;28;20127;-69
2022/08/01 01:10:22;;;;;;;5.18;1.20;;;16.80;99.90;;;;;;5053205;28;20488;-70
2022/08/01 01:12:58;;;;;;;1.30;1.20;;;16.80;99.90;;;;;;5054663;28;20032;-69
2022/08/01 01:15:41;;;;;;;2.58;1.33;;;16.80;99.90;;;;;;5058748;28;20160;-69
2022/08/01 01:18:12;;;;;;;2.28;1.17;;;16.70;99.90;;;;;;5055624;28;20035;-69
2022/08/01 01:20:41;;;;;;;3.05;1.20;;;16.60;99.90;;;;;;5056977;28;20056;-69
2022/08/01 01:23:27;;;;;;;1.58;1.30;;;16.60;99.90;;;;;;5054106;28;20116;-70
2022/08/01 01:26:18;;;;;;;1.20;1.10;;;16.60;99.90;;;;;;5034352;28;20040;-70
2022/08/01 01:29:11;;;;;;;2.28;1.00;;;16.60;99.90;;;;;;5056972;28;20560;-69
2022/08/01 01:31:44;;;;;;;1.10;1.00;;;16.70;99.90;;;;;;5059263;28;20114;-69
2022/08/01 01:34:13;;;;;;;2.60;1.10;;;16.70;99.90;;;;;;5055532;28;20020;-69
2022/08/01 01:36:41;;;;;;;1.65;1.05;;;16.70;99.90;;;;;;5047694;28;20501;-69
2022/08/01 01:39:07;;;;;;;1.50;1.08;;;16.70;99.90;;;;;;5051536;28;20106;-69
2022/08/01 01:41:36;;;;;;;2.75;1.08;;;16.80;99.90;;;;;;5060791;28;20068;-69
2022/08/01 01:44:03;;;;;;;2.72;1.30;;;16.70;99.90;;;;;;5060642;28;20578;-69
2022/08/01 01:46:31;;;;;;;2.88;1.20;;;16.80;99.90;;;;;;5042118;28;20044;-69
2022/08/01 01:48:59;;;;;;;2.65;1.10;;;16.80;99.90;;;;;;5056056;28;20668;-69
2022/08/01 01:51:26;;;;;;;2.00;0.98;;;16.80;99.90;;;;;;5055897;28;20512;-69
2022/08/01 01:53:55;;;;;;;1.77;0.95;;;16.80;99.90;;;;;;5053410;28;20032;-69
2022/08/01 01:56:21;;;;;;;3.95;1.10;;;16.80;99.90;;;;;;5036802;28;20044;-68
2022/08/01 01:58:52;;;;;;;1.38;1.10;;;16.90;99.90;;;;;;5060795;28;20032;-69
2022/08/01 02:01:19;;;;;;;2.15;1.15;;;16.80;99.90;;;;;;5039355;28;20041;-69
2022/08/01 02:03:46;;;;;;;1.63;0.93;;;16.90;99.90;;;;;;5052099;28;20067;-69
2022/08/01 02:06:14;;;;;;;2.05;0.95;;;17.00;99.90;;;;;;5048845;28;20099;-69
2022/08/01 02:08:41;;;;;;;1.98;1.05;;;17.00;99.90;;;;;;5049551;28;20110;-69
2022/08/01 02:11:19;;;;;;;1.55;0.90;;;17.10;99.90;;;;;;5050880;28;20036;-69
2022/08/01 02:13:58;;;;;;;1.05;0.80;;;17.20;99.90;;;;;;5056045;28;20456;-69
2022/08/01 02:16:26;;;;;;;1.30;1.00;;;17.20;99.90;;;;;;5055523;28;20031;-69
2022/08/01 02:18:53;;;;;;;2.00;1.13;;;17.20;99.90;;;;;;5057315;28;20043;-69
2022/08/01 02:21:32;;;;;;;1.30;1.20;;;17.20;99.90;;;;;;5058181;28;20678;-69
2022/08/01 02:24:25;;;;;;;1.00;0.90;;;17.20;99.90;;;;;;5058216;28;20033;-69
2022/08/01 02:26:54;;;;;;;1.10;0.95;;;17.30;99.90;;;;;;5055344;28;20091;-70
2022/08/01 02:29:36;;;;;;;2.92;1.20;;;17.40;99.90;;;;;;5054803;28;20047;-69
2022/08/01 02:32:04;;;;;;;1.63;0.95;;;17.40;99.90;;;;;;5051626;28;20039;-69
2022/08/01 02:34:33;;;;;;;2.30;1.30;;;17.40;99.90;;;;;;5058884;28;20555;-69
2022/08/01 02:37:01;;;;;;;3.03;1.00;;;17.40;99.90;;;;;;5056637;28;20124;-69
2022/08/01 02:39:29;;;;;;;7.22;1.40;;;17.30;99.90;;;;;;5059964;28;20032;-69
2022/08/01 02:42:03;;;;;;;2.95;0.95;;;17.30;99.90;;;;;;5051424;28;20028;-69
2022/08/01 02:44:32;;;;;;;1.23;1.00;;;17.30;99.90;;;;;;5048690;28;20041;-69
2022/08/01 02:47:02;;;;;;;1.38;1.00;;;17.30;99.90;;;;;;5052169;28;20056;-68
2022/08/01 02:49:38;;;;;;;1.60;1.30;;;17.30;99.90;;;;;;5052339;28;20079;-69
2022/08/01 02:52:09;;;;;;;1.52;1.35;;;17.30;99.90;;;;;;5055958;28;20103;-69
2022/08/01 02:54:37;;;;;;;5.75;1.20;;;17.20;99.90;;;;;;5060810;28;20056;-69
2022/08/01 02:57:04;;;;;;;1.23;1.00;;;17.10;99.90;;;;;;5055049;28;20036;-69
2022/08/01 02:59:31;;;;;;;1.27;1.00;;;17.10;99.90;;;;;;5055666;28;20087;-70
2022/08/01 03:01:59;;;;;;;3.38;2.03;;;17.00;99.90;;;;;;5047494;28;20025;-69
2022/08/01 03:04:26;;;;;;;2.00;1.00;;;17.00;99.90;;;;;;5058412;28;21148;-69
2022/08/01 03:06:58;;;;;;;4.43;1.10;;;17.00;99.90;;;;;;5058481;28;20060;-69
2022/08/01 03:09:27;;;;;;;1.20;1.10;;;17.10;99.90;;;;;;5053108;28;20555;-69
2022/08/01 03:11:55;;;;;;;1.60;1.25;;;17.10;99.90;;;;;;5059273;28;20404;-71
2022/08/01 03:14:22;;;;;;;2.30;0.80;;;17.10;99.90;;;;;;5046900;28;20044;-69
2022/08/01 03:16:49;;;;;;;3.38;0.98;;;17.10;99.90;;;;;;5036383;28;20056;-69
2022/08/01 03:19:16;;;;;;;3.03;1.08;;;17.10;99.90;;;;;;5028934;28;20041;-69
2022/08/01 03:21:44;;;;;;;1.00;0.90;;;16.90;99.90;;;;;;5037800;28;20063;-69
2022/08/01 03:24:11;;;;;;;1.13;1.00;;;16.80;99.90;;;;;;5036148;28;20498;-69
2022/08/01 03:26:39;;;;;;;2.38;1.15;;;16.60;99.90;;;;;;5035498;28;20159;-69
2022/08/01 03:29:10;;;;;;;1.65;1.10;;;16.50;99.90;;;;;;5037684;28;20103;-69
2022/08/01 03:31:38;;;;;;;0.90;0.90;;;16.40;99.90;;;;;;5037430;28;20397;-69
2022/08/01 03:34:05;;;;;;;1.58;0.90;;;16.20;99.90;;;;;;5033812;28;20448;-69
2022/08/01 03:36:33;;;;;;;1.63;1.08;;;16.20;99.90;;;;;;5034709;28;20048;-69
2022/08/01 03:39:02;;;;;;;1.70;0.98;;;16.00;99.90;;;;;;5032841;28;20063;-69
2022/08/01 03:41:33;;;;;;;1.67;1.02;;;16.00;99.90;;;;;;5036545;28;20045;-70
2022/08/01 03:44:07;;;;;;;1.53;1.30;;;15.90;99.90;;;;;;5031126;28;20033;-69
2022/08/01 03:46:39;;;;;;;2.25;1.33;;;15.90;99.90;;;;;;5037860;28;20072;-69
2022/08/01 03:49:11;;;;;;;1.30;1.10;;;15.70;99.90;;;;;;5027132;28;20513;-69
2022/08/01 03:51:38;;;;;;;2.67;1.48;;;15.70;99.90;;;;;;5030320;28;20062;-69
2022/08/01 03:54:06;;;;;;;1.40;1.30;;;15.70;99.90;;;;;;5029514;28;20603;-69
2022/08/01 03:56:33;;;;;;;2.75;1.20;;;15.60;99.90;;;;;;5036046;28;20139;-70
2022/08/01 03:59:00;;;;;;;2.97;1.10;;;15.60;99.90;;;;;;5033073;28;20496;-69
2022/08/01 04:01:29;;;;;;;1.35;1.25;;;15.60;99.90;;;;;;5033570;28;20128;-70
2022/08/01 04:03:54;;;;;;;3.38;1.42;;;15.60;99.90;;;;;;5027927;28;20405;-69
2022/08/01 04:06:20;;;;;;;2.05;1.10;;;15.60;99.90;;;;;;5034539;28;20041;-69
2022/08/01 04:08:55;;;;;;;5.95;1.15;;;15.60;99.90;;;;;;5032419;28;20187;-69
2022/08/01 04:11:25;;;;;;;3.17;1.00;;;15.50;99.90;;;;;;5030770;28;20033;-69
2022/08/01 04:13:55;;;;;;;2.38;1.25;;;15.50;99.90;;;;;;5042378;28;20056;-67
2022/08/01 04:16:22;;;;;;;1.95;1.10;;;15.50;99.90;;;;;;5050882;28;20052;-66
2022/08/01 04:18:48;;;;;;;2.33;1.52;;;15.50;99.90;;;;;;5055795;28;20412;-69
2022/08/01 04:21:17;;;;;;;10.18;1.70;;;15.60;99.90;;;;;;5052576;28;20029;-69
2022/08/01 04:23:45;;;;;;;7.45;1.83;;;15.80;99.90;;;;;;5040562;28;20043;-69
2022/08/01 04:26:12;;;;;;;2.13;1.80;;;15.90;99.90;;;;;;5053455;28;20101;-69
2022/08/01 04:28:39;;;;;;;2.75;1.80;;;15.90;99.90;;;;;;5052086;28;20142;-69
2022/08/01 04:31:09;;;;;;;4.82;1.80;;;16.00;99.90;;;;;;5053896;28;20097;-69
2022/08/01 04:33:37;;;;;;;2.22;1.80;;;16.10;99.90;;;;;;5058372;28;20949;-68
2022/08/01 04:36:04;;;;;;;4.45;1.92;;;16.10;99.90;;;;;;5051485;28;20020;-68
2022/08/01 04:38:33;;;;;;;1.58;1.30;;;16.20;99.90;;;;;;5048523;28;20052;-69
2022/08/01 04:41:01;;;;;;;1.83;1.40;;;16.20;99.90;;;;;;5052394;28;20040;-68
2022/08/01 04:43:26;;;;;;;3.08;1.80;;;16.30;99.90;;;;;;5051539;28;20052;-69
2022/08/01 04:45:54;;;;;;;2.33;1.70;;;16.40;99.90;;;;;;5054108;28;20036;-68
2022/08/01 04:48:21;;;;;;;1.50;1.35;;;16.60;99.90;;;;;;5053379;28;20037;-69
2022/08/01 04:50:47;;;;;;;2.28;1.25;;;16.70;99.90;;;;;;5051346;28;20124;-69
2022/08/01 04:53:21;;;;;;;1.45;1.35;;;16.70;99.90;;;;;;5049087;28;20028;-69
2022/08/01 04:55:47;;;;;;;2.80;1.30;;;16.80;99.90;;;;;;5053286;28;20029;-69
2022/08/01 04:58:15;;;;;;;3.42;1.33;;;16.90;99.90;;;;;;5055586;28;20661;-69
2022/08/01 05:00:41;;;;;;;1.30;1.17;;;17.00;99.90;;;;;;5052682;28;20400;-69
2022/08/01 05:03:07;;;;;;;1.25;1.02;;;17.10;99.90;;;;;;5054823;28;20132;-71
2022/08/01 05:05:33;;;;;;;1.15;1.10;;;17.20;99.90;;;;;;5051790;28;20043;-69
2022/08/01 05:08:00;;;;;;;11.35;1.35;;;17.30;99.90;;;;;;5042218;28;20029;-69
2022/08/01 05:10:25;;;;;;;3.03;1.10;;;17.50;99.90;;;;;;5046768;28;20133;-69
2022/08/01 05:12:51;;;;;;;1.20;1.10;;;17.50;99.90;;;;;;5056522;28;20602;-69
2022/08/01 05:15:17;;;;;;;3.35;1.10;;;17.70;99.90;;;;;;5054767;28;20052;-69
2022/08/01 05:17:43;;;;;;;3.65;1.30;;;17.90;99.90;;;;;;5052951;28;20032;-69
2022/08/01 05:20:09;;;;;;;0.93;0.93;;;18.10;99.90;;;;;;5049706;28;20037;-69
2022/08/01 05:22:35;;;;;;;3.55;1.27;;;18.30;99.90;;;;;;5052040;28;20051;-69
2022/08/01 05:25:00;;;;;;;4.88;1.40;;;18.50;99.90;;;;;;5053269;28;20037;-69
2022/08/01 05:27:26;;;;;;;0.98;0.98;;;18.60;99.90;;;;;;5053028;28;20036;-69
2022/08/01 05:29:52;;;;;;;1.10;1.00;;;18.80;99.90;;;;;;5058000;28;20072;-68
2022/08/01 05:32:18;;;;;;;1.60;1.05;;;19.00;99.90;;;;;;5052114;28;20710;-69
2022/08/01 05:34:43;;;;;;;1.40;1.05;;;19.10;99.90;;;;;;5059659;28;20531;-69
2022/08/01 05:37:09;;;;;;;3.60;0.93;;;19.20;99.90;;;;;;5054422;28;20024;-69
2022/08/01 05:39:35;;;;;;;1.88;1.00;;;19.30;99.90;;;;;;5060109;28;20036;-69
2022/08/01 05:42:01;;;;;;;2.33;1.10;;;19.40;99.90;;;;;;5055601;28;20057;-69
2022/08/01 05:44:26;;;;;;;2.67;1.20;;;19.60;99.90;;;;;;5061287;28;20048;-69
2022/08/01 05:46:52;;;;;;;0.90;0.90;;;19.80;99.90;;;;;;5057078;28;20086;-69
2022/08/01 05:49:18;;;;;;;6.93;1.00;;;19.90;99.90;;;;;;5052965;28;20052;-69
2022/08/01 05:51:43;;;;;;;3.30;1.08;;;20.10;99.90;;;;;;5058456;28;20040;-69
2022/08/01 05:54:09;;;;;;;1.85;0.90;;;20.20;99.90;;;;;;5054267;28;20051;-69
2022/08/01 05:56:35;;;;;;;1.17;0.90;;;20.50;99.90;;;;;;5062243;28;20035;-69
2022/08/01 05:59:00;;;;;;;1.75;1.10;;;20.70;99.90;;;;;;5061687;28;20033;-69
2022/08/01 06:01:26;;;;;;;3.30;1.15;;;20.90;99.90;;;;;;5057991;28;20036;-69
2022/08/01 06:03:53;;;;;;;1.63;0.80;;;21.10;99.90;;;;;;5055677;28;20126;-69
2022/08/01 06:06:20;;;;;;;1.23;1.00;;;21.30;99.90;;;;;;5058297;28;20036;-69
2022/08/01 06:08:46;;;;;;;1.98;1.00;;;21.50;99.90;;;;;;5058985;28;20127;-70
2022/08/01 06:11:12;;;;;;;1.95;1.20;;;21.60;97.90;;;;;;5052490;28;20094;-69
2022/08/01 06:13:38;;;;;;;2.78;1.25;;;21.80;98.20;;;;;;5036718;28;20048;-70
2022/08/01 06:16:04;;;;;;;3.92;1.20;;;22.00;98.50;;;;;;5039749;28;20036;-69
2022/08/01 06:18:29;;;;;;;1.70;0.95;;;22.10;98.20;;;;;;5056019;28;20139;-69
2022/08/01 06:20:55;;;;;;;0.95;0.85;;;22.20;97.90;;;;;;5054751;28;20580;-70
2022/08/01 06:23:21;;;;;;;8.40;1.40;;;22.30;98.30;;;;;;5056772;28;20119;-71
2022/08/01 06:25:47;;;;;;;3.78;1.88;;;22.40;99.20;;;;;;5051453;28;20097;-69
2022/08/01 06:28:13;;;;;;;3.95;2.53;;;22.30;99.00;;;;;;5048970;28;20444;-69
2022/08/01 06:30:39;;;;;;;2.30;2.10;;;22.30;99.60;;;;;;5058836;28;20024;-70
2022/08/01 06:33:05;;;;;;;2.97;1.90;;;22.30;99.90;;;;;;5057031;28;20720;-69
2022/08/01 06:35:31;;;;;;;2.95;1.17;;;22.40;99.90;;;;;;5055307;28;20119;-69
2022/08/01 06:37:57;;;;;;;1.65;1.35;;;22.40;99.90;;;;;;5040747;28;20040;-69
2022/08/01 06:40:23;;;;;;;3.17;2.38;;;22.50;98.20;;;;;;5055475;28;20452;-69
2022/08/01 06:42:49;;;;;;;2.58;2.10;;;22.50;98.20;;;;;;5056193;28;20051;-69
2022/08/01 06:45:15;;;;;;;3.95;1.60;;;22.60;98.70;;;;;;5035468;28;20032;-71
2022/08/01 06:47:42;;;;;;;1.50;1.40;;;22.80;98.00;;;;;;5055632;28;20037;-69
2022/08/01 06:50:09;;;;;;;3.25;1.27;;;22.80;97.80;;;;;;5055597;28;20379;-69
2022/08/01 06:52:35;;;;;;;5.53;1.20;;;22.80;97.50;;;;;;5049253;28;20044;-69
2022/08/01 06:55:01;;;;;;;2.38;1.13;;;22.90;97.80;;;;;;5053074;28;20243;-69
2022/08/01 06:57:27;;;;;;;14.82;4.15;;;22.90;97.60;;;;;;5054340;28;20037;-69
2022/08/01 06:59:54;;;;;;;2.65;1.25;;;23.00;97.50;;;;;;5051748;28;20044;-69
2022/08/01 07:02:20;;;;;;;55.53;14.13;;;23.00;97.00;;;;;;5042268;28;20035;-68
2022/08/01 07:04:46;;;;;;;8.95;2.35;;;23.00;97.10;;;;;;5051775;28;20549;-68
2022/08/01 07:07:11;;;;;;;39.03;8.93;;;23.20;97.60;;;;;;5053705;28;20117;-67
2022/08/01 07:09:37;;;;;;;2.22;1.35;;;23.40;96.40;;;;;;5052988;28;20064;-67
2022/08/01 07:12:03;;;;;;;1.40;1.25;;;23.60;96.00;;;;;;5051868;28;20052;-67
2022/08/01 07:14:29;;;;;;;42.85;8.88;;;23.60;95.60;;;;;;5036661;28;20146;-68
2022/08/01 07:16:55;;;;;;;20.20;4.47;;;23.80;96.20;;;;;;5048694;28;20533;-67
2022/08/01 07:19:20;;;;;;;1.23;1.00;;;23.90;94.60;;;;;;5050530;28;20396;-68
2022/08/01 07:21:46;;;;;;;55.83;7.93;;;24.00;92.10;;;;;;5051591;28;20032;-68
2022/08/01 07:24:13;;;;;;;10.85;2.30;;;24.20;91.50;;;;;;5056161;28;20129;-68
2022/08/01 07:26:43;;;;;;;3.53;1.58;;;24.30;91.30;;;;;;5055460;28;20036;-69
2022/08/01 07:29:09;;;;;;;1.65;1.23;;;24.50;92.00;;;;;;5049843;28;20052;-69
2022/08/01 07:31:35;;;;;;;2.67;1.00;;;24.70;88.00;;;;;;5052837;28;20028;-69
2022/08/01 07:34:00;;;;;;;4.35;0.95;;;24.80;88.90;;;;;;5046588;28;20048;-69
2022/08/01 07:36:26;;;;;;;2.80;0.80;;;25.00;87.40;;;;;;5046641;28;20039;-69
2022/08/01 07:38:51;;;;;;;0.95;0.88;;;25.20;84.60;;;;;;5056677;28;20033;-68
2022/08/01 07:41:17;;;;;;;1.02;0.80;;;25.30;82.70;;;;;;5059166;28;20037;-68
2022/08/01 07:43:43;;;;;;;1.48;0.90;;;25.30;87.00;;;;;;5055009;28;20040;-68
2022/08/01 07:46:08;;;;;;;0.77;0.77;;;25.40;82.70;;;;;;5053956;28;20079;-68
2022/08/01 07:48:34;;;;;;;0.90;0.82;;;25.30;79.00;;;;;;5051365;28;20565;-68
2022/08/01 07:51:00;;;;;;;2.33;0.90;;;25.20;80.30;;;;;;5048214;28;20709;-68
2022/08/01 07:53:25;;;;;;;2.50;1.20;;;25.20;79.40;;;;;;5053843;28;20044;-68
2022/08/01 07:55:51;;;;;;;2.47;0.95;;;25.10;79.70;;;;;;5052621;28;20146;-67
2022/08/01 07:58:17;;;;;;;3.25;1.35;;;25.10;79.40;;;;;;5055499;28;20091;-68
2022/08/01 08:00:43;;;;;;;1.20;0.80;;;25.00;78.10;;;;;;5044910;28;20036;-67
2022/08/01 08:03:09;;;;;;;1.83;0.90;;;25.00;82.30;;;;;;5051614;28;20489;-68
2022/08/01 08:05:35;;;;;;;0.82;0.70;;;24.90;81.80;;;;;;5045550;28;20124;-68
2022/08/01 08:08:09;;;;;;;1.40;0.90;;;24.80;78.80;;;;;;5047683;28;20111;-68
2022/08/01 08:10:35;;;;;;;1.27;0.95;;;24.70;81.40;;;;;;5052781;28;20037;-68
2022/08/01 08:13:01;;;;;;;4.68;1.17;;;24.60;81.70;;;;;;5057124;28;20047;-67
2022/08/01 08:15:28;;;;;;;2.00;0.90;;;24.60;83.20;;;;;;5057150;28;20041;-68
2022/08/01 08:17:53;;;;;;;1.75;1.20;;;24.50;79.80;;;;;;5051249;28;20048;-68
2022/08/01 08:20:24;;;;;;;1.27;1.10;;;24.50;80.70;;;;;;5051026;28;20028;-67
2022/08/01 08:22:50;;;;;;;4.43;0.70;;;24.30;80.10;;;;;;5033134;28;20036;-67
2022/08/01 08:25:16;;;;;;;2.78;1.15;;;24.30;79.10;;;;;;5048436;28;20036;-68
2022/08/01 08:27:41;;;;;;;1.05;0.95;;;24.30;80.60;;;;;;5051685;28;20134;-68
2022/08/01 08:30:07;;;;;;;1.67;1.00;;;24.20;81.60;;;;;;5057555;28;20040;-68
2022/08/01 08:32:34;;;;;;;2.85;1.13;;;24.20;78.30;;;;;;5059329;28;20044;-68
2022/08/01 08:35:00;;;;;;;1.70;0.90;;;24.20;79.80;;;;;;5055881;28;20044;-68
2022/08/01 08:37:26;;;;;;;3.30;1.17;;;24.10;79.60;;;;;;5056468;28;20024;-69
2022/08/01 08:39:51;;;;;;;3.08;1.13;;;24.10;80.70;;;;;;5054951;28;20029;-68
2022/08/01 08:42:18;;;;;;;3.90;1.05;;;24.10;79.30;;;;;;5044738;28;20525;-67
2022/08/01 08:44:44;;;;;;;1.73;1.20;;;24.00;80.60;;;;;;5046558;28;20045;-66
2022/08/01 08:47:12;;;;;;;1.83;1.10;;;24.00;72.20;;;;;;5041679;28;20517;-66
2022/08/01 08:49:38;;;;;;;2.97;1.10;;;24.00;73.30;;;;;;5058146;28;20060;-67
2022/08/01 08:52:04;;;;;;;3.80;1.40;;;23.90;78.40;;;;;;5034729;28;20117;-70
2022/08/01 08:54:32;;;;;;;2.08;0.90;;;23.90;79.00;;;;;;5046722;28;20698;-68
2022/08/01 08:56:59;;;;;;;2.67;0.90;;;23.90;80.80;;;;;;5032663;28;20039;-70
2022/08/01 08:59:26;;;;;;;4.53;1.10;;;23.90;80.40;;;;;;5039460;28;20045;-69
2022/08/01 09:01:52;;;;;;;1.38;0.95;;;23.80;79.20;;;;;;5030053;28;20036;-72
2022/08/01 09:04:20;;;;;;;2.17;0.90;;;23.90;81.90;;;;;;5040155;28;20029;-73
2022/08/01 09:06:46;;;;;;;2.28;1.00;;;23.80;83.10;;;;;;5027338;28;20041;-72
2022/08/01 09:09:12;;;;;;;2.05;1.00;;;23.80;84.00;;;;;;5044807;28;20044;-73
2022/08/01 09:11:38;;;;;;;1.67;1.00;;;23.70;83.10;;;;;;5048602;28;20082;-72
2022/08/01 09:14:05;;;;;;;1.20;0.95;;;23.70;84.50;;;;;;5039264;28;20226;-71
2022/08/01 09:16:33;;;;;;;0.98;0.90;;;23.70;85.10;;;;;;5052813;28;20238;-71
2022/08/01 09:19:25;;;;;;;0.77;0.77;;;23.70;82.70;;;;;;5047677;28;20052;-72
2022/08/01 09:21:59;;;;;;;1.25;1.13;;;23.70;77.80;;;;;;5039436;28;20040;-73
2022/08/01 09:24:27;;;;;;;1.75;0.90;;;23.70;76.60;;;;;;5050510;28;20040;-73
2022/08/01 09:26:54;;;;;;;1.08;0.98;;;23.70;78.70;;;;;;5035857;28;20025;-72
2022/08/01 09:29:30;;;;;;;1.45;0.90;;;23.80;74.90;;;;;;5038454;28;20048;-72
2022/08/01 09:31:57;;;;;;;1.55;1.00;;;23.80;76.80;;;;;;5041192;28;20059;-73
2022/08/01 09:34:27;;;;;;;9.63;1.42;;;23.90;77.00;;;;;;5054457;28;20049;-71
2022/08/01 09:36:58;;;;;;;0.98;0.80;;;24.00;78.40;;;;;;5044920;28;20906;-71
2022/08/01 09:39:32;;;;;;;7.60;1.15;;;24.10;79.70;;;;;;5044327;28;20036;-73
2022/08/01 09:42:00;;;;;;;0.90;0.90;;;24.10;77.50;;;;;;5040386;28;20044;-72
2022/08/01 09:44:42;;;;;;;1.05;0.80;;;24.20;79.60;;;;;;5036114;28;20064;-72
2022/08/01 09:47:07;;;;;;;1.05;0.95;;;24.20;78.80;;;;;;5049738;28;20116;-68
2022/08/01 09:49:36;;;;;;;7.72;1.10;;;24.20;78.40;;;;;;5048210;28;20055;-66
2022/08/01 09:52:17;;;;;;;2.17;1.30;;;24.20;78.70;;;;;;5045491;28;20028;-65
2022/08/01 09:54:59;;;;;;;1.05;0.95;;;24.20;80.40;;;;;;5046750;28;20137;-65
2022/08/01 09:57:26;;;;;;;12.55;1.58;;;24.20;75.30;;;;;;5046454;28;20037;-71
2022/08/01 09:59:54;;;;;;;9.13;1.02;;;24.20;77.90;;;;;;5047970;28;20040;-71
2022/08/01 10:02:32;;;;;;;1.40;1.20;;;24.20;80.20;;;;;;5052640;28;20390;-71
2022/08/01 10:04:58;;;;;;;2.20;1.20;;;24.20;82.00;;;;;;5050655;28;20040;-72
2022/08/01 10:07:24;;;;;;;2.75;1.17;;;24.20;78.60;;;;;;5053180;28;20166;-72
2022/08/01 10:09:49;;;;;;;0.88;0.82;;;24.30;78.50;;;;;;5046715;28;20044;-74
2022/08/01 10:12:18;;;;;;;1.10;1.00;;;24.30;79.70;;;;;;5048301;28;20577;-74
2022/08/01 10:14:46;;;;;;;1.98;1.13;;;24.40;75.30;;;;;;5054556;28;20394;-76
2022/08/01 10:17:14;;;;;;;1.92;0.90;;;24.50;80.40;;;;;;5047635;28;20039;-75
2022/08/01 10:19:41;;;;;;;1.20;1.10;;;24.50;79.20;;;;;;5044795;28;20048;-75
2022/08/01 10:22:15;;;;;;;2.38;1.27;;;24.60;75.40;;;;;;5044638;28;20032;-76
2022/08/01 10:24:43;;;;;;;1.70;1.10;;;24.60;75.90;;;;;;5031215;28;20040;-75
2022/08/01 10:27:10;;;;;;;2.47;1.20;;;24.70;79.60;;;;;;5050795;28;20028;-75
2022/08/01 10:29:57;;;;;;;2.85;1.25;;;24.80;75.90;;;;;;5017283;28;21109;-77
2022/08/01 10:32:24;;;;;;;1.80;1.27;;;24.90;79.30;;;;;;5048352;28;20036;-83
2022/08/01 10:34:50;;;;;;;1.02;0.93;;;24.90;75.30;;;;;;5051988;28;20117;-72
2022/08/01 10:37:17;;;;;;;2.03;0.98;;;24.90;76.80;;;;;;5053760;28;20052;-73
2022/08/01 10:39:43;;;;;;;3.03;0.98;;;24.90;74.90;;;;;;5049834;28;20028;-70
2022/08/01 10:42:12;;;;;;;1.40;1.30;;;24.90;74.80;;;;;;5046270;28;20075;-73
2022/08/01 10:44:39;;;;;;;1.10;1.00;;;24.90;77.00;;;;;;5041667;28;21616;-70
2022/08/01 10:47:09;;;;;;;1.50;1.30;;;25.00;79.30;;;;;;5037566;28;20094;-70
2022/08/01 10:49:45;;;;;;;2.08;1.25;;;25.10;77.40;;;;;;5052957;28;20108;-67
2022/08/01 10:52:17;;;;;;;5.35;1.50;;;25.20;75.90;;;;;;5050162;28;20571;-71
2022/08/01 10:54:44;;;;;;;2.33;1.08;;;25.30;77.90;;;;;;5057805;28;20052;-66
2022/08/01 10:57:11;;;;;;;3.13;1.77;;;25.40;75.00;;;;;;5051070;28;20024;-65
2022/08/01 10:59:49;;;;;;;5.10;1.35;;;25.50;74.40;;;;;;5041402;28;20048;-69
2022/08/01 11:02:40;;;;;;;3.50;1.30;;;25.50;74.10;;;;;;5032025;28;20524;-73
2022/08/01 11:05:12;;;;;;;1.98;1.13;;;25.50;78.70;;;;;;5048528;28;20114;-71
2022/08/01 11:07:44;;;;;;;1.85;1.13;;;25.50;73.20;;;;;;5020462;28;20251;-71
2022/08/01 11:10:32;;;;;;;3.13;1.10;;;25.40;74.10;;;;;;5049470;28;20041;-70
2022/08/01 11:12:58;;;;;;;5.00;1.20;;;25.40;73.30;;;;;;5034248;28;20043;-71
2022/08/01 11:15:25;;;;;;;2.67;1.35;;;25.40;74.60;;;;;;5045100;28;20053;-71
2022/08/01 11:17:52;;;;;;;1.30;1.20;;;25.40;78.70;;;;;;5052811;28;20036;-71
2022/08/01 11:20:26;;;;;;;2.58;1.50;;;25.50;75.70;;;;;;5050736;28;20032;-71
2022/08/01 11:23:00;;;;;;;2.25;1.23;;;25.50;77.50;;;;;;5050391;28;20437;-72
2022/08/01 11:25:45;;;;;;;2.20;1.52;;;25.40;75.70;;;;;;5051710;28;20029;-71
2022/08/01 11:28:17;;;;;;;2.97;1.40;;;25.40;74.40;;;;;;5054980;28;20056;-72
2022/08/01 11:30:50;;;;;;;1.40;1.30;;;25.30;78.90;;;;;;5045869;28;20414;-73
2022/08/01 11:33:18;;;;;;;5.68;1.73;;;25.40;76.90;;;;;;5040294;28;20052;-73
2022/08/01 11:36:19;;;;;;;1.23;1.20;;;25.30;79.70;;;;;;5044710;28;20689;-76
2022/08/01 11:38:47;;;;;;;1.40;1.30;;;25.40;80.80;;;;;;5044110;28;20029;-74
2022/08/01 11:41:25;;;;;;;1.48;1.38;;;25.40;78.40;;;;;;5038484;28;20029;-74
2022/08/01 11:44:07;;;;;;;2.35;1.52;;;25.40;77.50;;;;;;5023109;28;20036;-74
2022/08/01 11:46:49;;;;;;;7.30;1.77;;;25.40;77.70;;;;;;5049249;28;20071;-73
2022/08/01 11:49:34;;;;;;;1.38;1.27;;;25.30;80.20;;;;;;5040232;28;20078;-75
2022/08/01 11:52:16;;;;;;;1.40;1.25;;;25.40;80.80;;;;;;5039881;28;20134;-73
2022/08/01 11:54:48;;;;;;;2.55;1.42;;;25.40;82.40;;;;;;5035738;28;20501;-70
2022/08/01 11:57:25;;;;;;;2.63;1.20;;;25.50;82.40;;;;;;5049768;28;20085;-72
2022/08/01 11:59:53;;;;;;;2.33;1.40;;;25.50;80.80;;;;;;5046442;28;20120;-73
2022/08/01 12:02:20;;;;;;;1.70;1.52;;;25.50;82.50;;;;;;5044091;28;20047;-73
2022/08/01 12:04:58;;;;;;;2.20;1.50;;;25.50;82.70;;;;;;5042766;28;20056;-73
2022/08/01 12:07:26;;;;;;;1.40;1.30;;;25.60;81.30;;;;;;5045459;28;21086;-74
2022/08/01 12:10:00;;;;;;;1.42;1.30;;;25.60;81.00;;;;;;5043711;28;20064;-73
2022/08/01 12:12:27;;;;;;;2.80;1.90;;;25.60;81.40;;;;;;5042914;28;20039;-74
2022/08/01 12:14:56;;;;;;;2.55;1.30;;;25.60;81.80;;;;;;5041837;28;20485;-75
2022/08/01 12:17:39;;;;;;;1.60;1.50;;;25.70;81.50;;;;;;5049671;28;20115;-74
2022/08/01 12:20:09;;;;;;;1.70;1.60;;;25.80;80.90;;;;;;5051353;28;20032;-73
2022/08/01 12:22:36;;;;;;;5.53;1.40;;;25.90;82.00;;;;;;5047602;28;20032;-71
2022/08/01 12:25:10;;;;;;;2.50;1.55;;;26.00;81.10;;;;;;5053575;28;20544;-70
2022/08/01 12:27:37;;;;;;;1.45;1.30;;;26.00;83.20;;;;;;5049318;28;20052;-73
2022/08/01 12:30:06;;;;;;;5.43;1.20;;;26.10;80.50;;;;;;5046682;28;20040;-74
2022/08/01 12:32:35;;;;;;;1.33;1.25;;;26.10;81.70;;;;;;5047935;28;20033;-74
2022/08/01 12:35:03;;;;;;;2.38;1.20;;;26.20;81.70;;;;;;5044276;28;20037;-72
2022/08/01 12:37:29;;;;;;;2.80;1.48;;;26.20;81.80;;;;;;5040815;28;20223;-73
2022/08/01 12:39:57;;;;;;;1.27;1.17;;;26.20;82.90;;;;;;5027204;28;20040;-74
2022/08/01 12:42:24;;;;;;;2.78;1.40;;;26.30;83.60;;;;;;5044365;28;20098;-72
2022/08/01 12:44:52;;;;;;;1.85;1.50;;;26.40;82.00;;;;;;5053890;28;20049;-72
2022/08/01 12:47:19;;;;;;;2.90;1.50;;;26.40;78.90;;;;;;5046498;28;20508;-73
2022/08/01 12:49:46;;;;;;;1.33;1.23;;;26.40;74.90;;;;;;5055687;28;20098;-73
2022/08/01 12:52:12;;;;;;;1.73;1.00;;;26.40;78.40;;;;;;5046718;28;20036;-74
2022/08/01 12:55:01;;;;;;;1.58;1.20;;;26.50;73.40;;;;;;5055661;28;20040;-74